Berden, United Kingdom
Current Conditions -  °F | °C
As of 10:20 PM on Sunday 21 Dec 2014 (Local Time) from EGSS Reporting Station
Overcast Overcast  
Wind Chill: 52°   Ceiling: 1200
Heat Index: 52°   Visibility: 6mi
Dew Point: 48°   Wind: 23mph
Humidity: 88%   Direction: 230°SW
Pressure: 30.12"   Gusts: NA
Location:  51.94°N, 0.15°E
Report Text: EGSS 212220Z 23020KT 9999 OVC012 11/09 Q1020
Loading
Personal Weather Stations






























Interactive Weather Map New forecast layout! Learn more

10-Day Weather Forecast

Advertisements
Track Severe Weather on mobile